Time;durP1;ratioP1;P1;durP2;ratioP2;P2;SDS_P1;SDS_P2;PMS_P1;PMS_P2;Temp;Humidity;BMP_temperature;BMP_pressure;BME280_temperature;BME280_humidity;BME280_pressure;Samples;Min_cycle;Max_cycle;Signal;HPM_P1;HPM_P2
2023/05/18 00:00:34;;;;;;;12.40;4.30;;;;;;;7.67;77.69;101540.52;105648;1256;83097;-60
2023/05/18 00:03:20;;;;;;;15.00;4.30;;;;;;;7.63;77.67;101539.67;105650;1252;73440;-60
2023/05/18 00:05:49;;;;;;;10.10;3.90;;;;;;;7.59;77.88;101531.00;105698;1251;69108;-60
2023/05/18 00:08:17;;;;;;;8.90;3.10;;;;;;;7.57;77.86;101524.92;105618;1251;69076;-60
2023/05/18 00:10:46;;;;;;;11.80;3.40;;;;;;;7.55;77.74;101523.02;105594;1255;72485;-60
2023/05/18 00:13:14;;;;;;;12.00;3.70;;;;;;;7.53;77.82;101525.11;105599;1257;83382;-60
2023/05/18 00:15:43;;;;;;;8.30;3.30;;;;;;;7.53;77.79;101527.90;105522;1257;73881;-60
2023/05/18 00:18:11;;;;;;;6.60;2.90;;;;;;;7.52;77.59;101535.39;105584;1255;69186;-60
2023/05/18 00:20:40;;;;;;;12.00;3.30;;;;;;;7.50;77.70;101533.30;105653;1255;69185;-60
2023/05/18 00:23:15;;;;;;;9.60;2.90;;;;;;;7.48;77.44;101535.41;105723;1257;72854;-60
2023/05/18 00:25:43;;;;;;;7.60;3.20;;;;;;;7.45;77.49;101533.00;105661;1255;83259;-60
2023/05/18 00:28:12;;;;;;;6.10;3.20;;;;;;;7.39;77.78;101533.55;105704;1252;72648;-61
2023/05/18 00:30:40;;;;;;;8.50;2.60;;;;;;;7.33;77.61;101534.81;105603;1251;69202;-60
2023/05/18 00:33:08;;;;;;;9.10;3.00;;;;;;;7.23;77.56;101536.08;105642;1257;69109;-60
2023/05/18 00:35:36;;;;;;;7.00;2.60;;;;;;;7.12;77.52;101526.91;105641;1251;73094;-61
2023/05/18 00:38:05;;;;;;;10.60;3.00;;;;;;;7.00;77.61;101529.92;105629;1257;81756;-60
2023/05/18 00:40:33;;;;;;;7.10;2.70;;;;;;;6.90;77.68;101532.20;105705;1257;73689;-60
2023/05/18 00:43:01;;;;;;;10.70;3.10;;;;;;;6.81;77.55;101535.38;105677;1256;69182;-60
2023/05/18 00:45:30;;;;;;;8.10;2.50;;;;;;;6.72;77.74;101542.20;105630;1251;69163;-60
2023/05/18 00:47:58;;;;;;;6.80;2.40;;;;;;;6.62;78.06;101543.24;105702;1253;73066;-60
2023/05/18 00:50:27;;;;;;;5.10;2.20;;;;;;;6.53;77.84;101546.39;105520;1251;83375;-60
2023/05/18 00:52:55;;;;;;;7.50;2.10;;;;;;;6.46;77.98;101543.46;105619;1256;72767;-60
2023/05/18 00:55:26;;;;;;;8.30;2.30;;;;;;;6.37;78.11;101549.02;105498;1257;69464;-60
2023/05/18 00:57:56;;;;;;;4.00;1.70;;;;;;;6.26;78.22;101549.05;105633;1257;69151;-60
2023/05/18 01:00:25;;;;;;;6.60;2.00;;;;;;;6.15;78.30;101547.83;105714;1257;73527;-60
2023/05/18 01:02:53;;;;;;;6.10;2.20;;;;;;;6.06;78.73;101552.52;105570;1251;83550;-60
2023/05/18 01:05:22;;;;;;;4.30;1.90;;;;;;;5.98;78.55;101552.16;105672;1257;73758;-60
2023/05/18 01:07:50;;;;;;;6.50;2.40;;;;;;;5.90;78.81;101555.77;105595;1256;69179;-60
2023/05/18 01:10:19;;;;;;;9.00;2.20;;;;;;;5.81;79.21;101560.80;105669;1251;69174;-60
2023/05/18 01:12:50;;;;;;;6.40;2.20;;;;;;;5.74;79.33;101566.85;105625;1256;72473;-60
2023/05/18 01:15:33;;;;;;;7.30;2.20;;;;;;;5.70;79.62;101570.15;105613;1257;83262;-60
2023/05/18 01:18:14;;;;;;;9.50;2.10;;;;;;;5.63;79.62;101567.88;105699;1256;73372;-60
2023/05/18 01:20:44;;;;;;;7.30;2.10;;;;;;;5.53;79.68;101570.96;105535;1251;69186;-60
2023/05/18 01:23:35;;;;;;;6.90;2.20;;;;;;;5.44;79.84;101572.52;105681;1257;69032;-60
2023/05/18 01:26:14;;;;;;;6.30;3.10;;;;;;;5.38;79.96;101574.59;105635;1257;72259;-60
2023/05/18 01:28:45;;;;;;;8.10;2.30;;;;;;;5.32;80.20;101574.90;105637;1256;83508;-60
2023/05/18 01:31:14;;;;;;;;;;;;;;;5.24;80.47;101577.30;105719;1251;73662;-60
2023/05/18 01:33:43;;;;;;;8.20;2.40;;;;;;;5.20;80.81;101575.90;105685;1252;69165;-60
2023/05/18 01:36:12;;;;;;;9.90;2.10;;;;;;;5.17;80.86;101576.59;105649;1257;69175;-60
2023/05/18 01:38:41;;;;;;;6.90;2.00;;;;;;;5.13;80.89;101577.09;105681;1251;73998;-60
2023/05/18 01:41:14;;;;;;;7.40;2.10;;;;;;;5.08;80.80;101584.35;105629;1251;82583;-60
2023/05/18 01:44:19;;;;;;;9.40;2.60;;;;;;;5.04;80.88;101589.00;105547;1257;72302;-60
2023/05/18 01:47:11;;;;;;;7.10;2.40;;;;;;;4.99;81.12;101591.75;105564;1252;69210;-60
2023/05/18 01:49:44;;;;;;;7.80;2.30;;;;;;;4.96;81.31;101586.54;105628;1251;69059;-61
2023/05/18 01:52:18;;;;;;;6.80;1.90;;;;;;;4.89;81.09;101590.65;105647;1255;74221;-60
2023/05/18 01:54:54;;;;;;;3.90;1.90;;;;;;;4.82;81.37;101591.47;105585;1251;82509;-60
2023/05/18 01:57:23;;;;;;;7.90;2.10;;;;;;;4.78;81.65;101590.24;105640;1256;74014;-60
2023/05/18 01:59:53;;;;;;;8.70;2.50;;;;;;;4.74;81.64;101591.44;105556;1257;69140;-60
2023/05/18 02:02:21;;;;;;;5.30;2.00;;;;;;;4.68;81.71;101590.02;105570;1257;69164;-60
2023/05/18 02:04:53;;;;;;;6.40;2.20;;;;;;;4.64;81.70;101589.65;105612;1251;74005;-60
2023/05/18 02:07:21;;;;;;;7.10;1.90;;;;;;;4.59;81.92;101595.48;105530;1257;83410;-60
2023/05/18 02:09:49;;;;;;;5.20;2.20;;;;;;;4.57;82.25;101592.89;105532;1264;73857;-60
2023/05/18 02:12:18;;;;;;;7.60;2.30;;;;;;;4.60;82.11;101593.25;105660;1251;69191;-60
2023/05/18 02:14:46;;;;;;;12.30;2.90;;;;;;;4.62;82.41;101594.48;105650;1257;69167;-60
2023/05/18 02:17:16;;;;;;;9.70;2.70;;;;;;;4.64;82.37;101598.13;105605;1257;74364;-60
2023/05/18 02:19:44;;;;;;;7.00;2.80;;;;;;;4.65;82.76;101599.50;105561;1257;83465;-60
2023/05/18 02:22:13;;;;;;;7.70;1.90;;;;;;;4.65;82.88;101596.39;105576;1257;73761;-60
2023/05/18 02:24:41;;;;;;;6.30;2.10;;;;;;;4.63;82.52;101598.98;105583;1256;69181;-59
2023/05/18 02:27:09;;;;;;;7.10;2.30;;;;;;;4.61;82.60;101599.30;105539;1257;69064;-60
2023/05/18 02:29:37;;;;;;;11.40;2.50;;;;;;;4.59;82.53;101602.59;105540;1256;73316;-60
2023/05/18 02:32:07;;;;;;;5.80;2.30;;;;;;;4.57;82.71;101598.95;105605;1257;83311;-60
2023/05/18 02:34:37;;;;;;;8.40;2.30;;;;;;;4.58;82.98;101601.89;105601;1253;73845;-60
2023/05/18 02:37:05;;;;;;;11.50;2.40;;;;;;;4.60;83.41;101597.91;105606;1257;69182;-60
2023/05/18 02:39:33;;;;;;;5.60;1.90;;;;;;;4.59;83.24;101600.86;105589;1257;69256;-60
2023/05/18 02:42:02;;;;;;;9.30;2.10;;;;;;;4.59;83.16;101599.30;105543;1256;74221;-60
2023/05/18 02:44:30;;;;;;;9.60;2.40;;;;;;;4.59;83.22;101599.13;105621;1256;83551;-60
2023/05/18 02:46:58;;;;;;;8.10;2.50;;;;;;;4.59;82.99;101600.86;105596;1256;73361;-64
2023/05/18 02:49:27;;;;;;;6.50;1.80;;;;;;;4.60;83.20;101603.11;105607;1256;69061;-61
2023/05/18 02:51:55;;;;;;;9.30;2.30;;;;;;;4.60;83.42;101608.48;105576;1257;69072;-62
2023/05/18 02:54:23;;;;;;;6.20;2.30;;;;;;;4.58;83.30;101610.55;105613;1251;73136;-61
2023/05/18 02:56:55;;;;;;;8.90;2.50;;;;;;;4.57;83.55;101610.89;105636;1255;82509;-62
2023/05/18 02:59:36;;;;;;;7.20;2.00;;;;;;;4.56;83.52;101614.86;105615;1257;73732;-61
2023/05/18 03:02:05;;;;;;;5.10;2.20;;;;;;;4.53;83.53;101617.44;105702;1256;69169;-61
2023/05/18 03:04:33;;;;;;;6.80;2.40;;;;;;;4.55;83.89;101618.84;105690;1257;69208;-61
2023/05/18 03:07:02;;;;;;;4.90;1.80;;;;;;;4.54;83.68;101620.05;105704;1257;74005;-61
2023/05/18 03:09:30;;;;;;;6.50;2.20;;;;;;;4.53;83.67;101622.11;105658;1255;83717;-61
2023/05/18 03:12:00;;;;;;;8.80;2.80;;;;;;;4.53;83.91;101623.84;105608;1256;72417;-61
2023/05/18 03:14:28;;;;;;;9.90;2.50;;;;;;;4.54;83.74;101628.52;105644;1257;69204;-62
2023/05/18 03:16:57;;;;;;;10.00;2.80;;;;;;;4.54;84.00;101629.55;105663;1257;69121;-62
2023/05/18 03:19:26;;;;;;;8.10;2.60;;;;;;;4.54;83.75;101636.13;105604;1257;74015;-61
2023/05/18 03:21:56;;;;;;;9.10;2.50;;;;;;;4.53;83.83;101634.21;105674;1257;83474;-61
2023/05/18 03:24:29;;;;;;;;;;;;;;;4.52;83.98;101634.38;105665;1257;73515;-61
2023/05/18 03:26:59;;;;;;;6.80;2.40;;;;;;;4.52;84.13;101634.91;105664;1257;69177;-61
2023/05/18 03:29:28;;;;;;;8.20;2.40;;;;;;;4.54;84.35;101631.98;105555;1251;156996;-61
2023/05/18 03:31:59;;;;;;;7.40;2.30;;;;;;;4.59;84.50;101633.75;105612;1257;74293;-61
2023/05/18 03:34:27;;;;;;;9.00;2.60;;;;;;;4.63;84.62;101636.55;105691;1257;83380;-60
2023/05/18 03:36:56;;;;;;;10.20;2.80;;;;;;;4.65;84.74;101639.86;105587;1251;73925;-61
2023/05/18 03:39:25;;;;;;;9.60;2.70;;;;;;;4.68;84.46;101636.08;105666;1256;69182;-61
2023/05/18 03:41:53;;;;;;;10.40;3.10;;;;;;;4.71;84.51;101641.45;105683;1257;69188;-61
2023/05/18 03:44:21;;;;;;;8.00;2.50;;;;;;;4.76;84.61;101637.67;105557;1251;74140;-61
2023/05/18 03:46:50;;;;;;;8.90;2.50;;;;;;;4.82;84.62;101637.37;105536;1258;83479;-61
2023/05/18 03:49:18;;;;;;;8.90;2.70;;;;;;;4.89;84.52;101633.44;105503;1254;73755;-61
2023/05/18 03:51:46;;;;;;;6.60;2.60;;;;;;;4.96;84.83;101634.51;105643;1256;69701;-61
2023/05/18 03:54:15;;;;;;;8.40;2.50;;;;;;;5.04;84.83;101636.13;105662;1257;69173;-61
2023/05/18 03:56:45;;;;;;;7.60;2.70;;;;;;;5.12;84.60;101640.49;105684;1256;73885;-61
2023/05/18 03:59:14;;;;;;;7.20;3.00;;;;;;;5.22;85.03;101641.92;105659;1257;82808;-61
2023/05/18 04:01:43;;;;;;;10.10;3.00;;;;;;;5.31;85.13;101641.80;105655;1256;73725;-61
2023/05/18 04:04:16;;;;;;;9.90;3.00;;;;;;;5.39;84.86;101646.52;105695;1257;69083;-61
2023/05/18 04:06:45;;;;;;;9.40;2.90;;;;;;;5.47;85.00;101648.64;105578;1257;69355;-61
2023/05/18 04:09:16;;;;;;;10.80;2.60;;;;;;;5.54;84.94;101648.13;105594;1257;74211;-61
2023/05/18 04:11:44;;;;;;;10.60;2.90;;;;;;;5.60;84.67;101648.84;105632;1257;83547;-61
2023/05/18 04:14:13;;;;;;;11.90;3.50;;;;;;;5.67;84.89;101653.20;105656;1257;73783;-61
2023/05/18 04:16:41;;;;;;;9.50;3.00;;;;;;;5.72;84.54;101658.59;105547;1255;69471;-61
2023/05/18 04:19:10;;;;;;;12.90;3.00;;;;;;;5.77;84.34;101665.38;105702;1256;69162;-61
2023/05/18 04:21:42;;;;;;;9.60;3.30;;;;;;;5.80;84.32;101670.23;105732;1257;74379;-61
2023/05/18 04:24:13;;;;;;;9.30;2.80;;;;;;;5.84;84.48;101669.55;105669;1255;81577;-61
2023/05/18 04:26:42;;;;;;;9.50;2.90;;;;;;;5.88;84.60;101672.17;105627;1255;73335;-60
2023/05/18 04:29:12;;;;;;;9.80;3.10;;;;;;;5.94;84.80;101671.52;105617;1255;69176;-61
2023/05/18 04:31:41;;;;;;;17.30;8.50;;;;;;;5.97;84.87;101668.94;105598;1257;69201;-61
2023/05/18 04:34:12;;;;;;;9.30;3.50;;;;;;;5.96;84.48;101671.36;105685;1251;74220;-61
2023/05/18 04:36:41;;;;;;;;;;;;;;;5.95;84.07;101673.43;105592;1257;82342;-60
2023/05/18 04:39:11;;;;;;;8.00;2.80;;;;;;;5.92;84.16;101670.10;105641;1256;73947;-61
2023/05/18 04:41:40;;;;;;;8.20;3.30;;;;;;;5.90;84.04;101674.59;105598;1257;69119;-61
2023/05/18 04:44:09;;;;;;;6.50;3.20;;;;;;;5.88;83.92;101675.81;105567;1257;69194;-61
2023/05/18 04:46:39;;;;;;;9.80;3.50;;;;;;;5.88;84.02;101670.61;105548;1251;73143;-61
2023/05/18 04:49:10;;;;;;;7.70;3.10;;;;;;;5.88;84.01;101676.00;105618;1255;83431;-61
2023/05/18 04:51:40;;;;;;;9.60;3.30;;;;;;;5.88;83.84;101677.21;105584;1254;73712;-61
2023/05/18 04:54:09;;;;;;;8.30;2.80;;;;;;;5.88;84.00;101682.07;105673;1257;69624;-61
2023/05/18 04:56:37;;;;;;;10.50;3.90;;;;;;;5.90;83.91;101686.92;105549;1256;69202;-60
2023/05/18 04:59:09;;;;;;;9.90;3.80;;;;;;;5.93;84.16;101690.42;105705;1257;72528;-61
2023/05/18 05:01:38;;;;;;;8.90;3.60;;;;;;;5.97;84.58;101691.83;105579;1256;83303;-61
2023/05/18 05:04:06;;;;;;;10.10;3.50;;;;;;;6.04;84.50;101694.45;105649;1256;73743;-61
2023/05/18 05:06:35;;;;;;;9.20;3.20;;;;;;;6.09;84.13;101698.27;105682;1251;69063;-61
2023/05/18 05:09:04;;;;;;;8.30;3.10;;;;;;;6.14;84.24;101697.60;105587;1256;69169;-61
2023/05/18 05:11:33;;;;;;;11.50;3.70;;;;;;;6.19;84.54;101698.66;105650;1258;74270;-59
2023/05/18 05:14:02;;;;;;;12.00;3.40;;;;;;;6.23;84.34;101696.23;105796;1251;83497;-60
2023/05/18 05:16:31;;;;;;;10.40;3.90;;;;;;;6.30;84.58;101695.71;105697;1256;73193;-62
2023/05/18 05:18:59;;;;;;;8.00;3.60;;;;;;;6.38;84.24;101694.16;105650;1259;69182;-60
2023/05/18 05:21:28;;;;;;;7.60;3.00;;;;;;;6.48;84.45;101692.78;105909;1255;69106;-61
2023/05/18 05:23:57;;;;;;;7.20;3.00;;;;;;;6.60;84.80;101690.52;105754;1251;74280;-60
2023/05/18 05:26:27;;;;;;;10.30;3.60;;;;;;;6.72;84.44;101688.11;105699;1254;84716;-62
2023/05/18 05:28:56;;;;;;;10.00;3.20;;;;;;;6.85;84.68;101688.79;105740;1256;72734;-61
2023/05/18 05:31:25;;;;;;;7.10;2.80;;;;;;;6.99;84.64;101692.59;105659;1255;69170;-63
2023/05/18 05:33:53;;;;;;;11.90;3.00;;;;;;;7.15;84.57;101694.30;105733;1257;69758;-64
2023/05/18 05:36:22;;;;;;;9.10;2.30;;;;;;;7.34;84.74;101690.59;105846;1256;74297;-61
2023/05/18 05:38:50;;;;;;;7.90;2.60;;;;;;;7.53;84.39;101688.96;105677;1251;82596;-62
2023/05/18 05:41:18;;;;;;;9.80;2.70;;;;;;;7.69;84.01;101682.80;105848;1251;73677;-62
2023/05/18 05:43:47;;;;;;;7.50;2.50;;;;;;;7.85;83.84;101682.21;105674;1254;69215;-60
2023/05/18 05:46:16;;;;;;;8.50;2.70;;;;;;;8.01;83.61;101681.59;105659;1256;69205;-59
2023/05/18 05:48:44;;;;;;;8.00;2.80;;;;;;;8.15;83.43;101680.11;105670;1256;74287;-59
2023/05/18 05:51:12;;;;;;;9.50;3.10;;;;;;;8.29;83.02;101685.77;105673;1251;83966;-59
2023/05/18 05:53:42;;;;;;;6.20;2.20;;;;;;;8.44;82.48;101690.22;105763;1251;73016;-59
2023/05/18 05:56:10;;;;;;;8.20;2.80;;;;;;;8.57;81.86;101686.29;105645;1257;69202;-59
2023/05/18 05:58:41;;;;;;;7.70;2.20;;;;;;;8.71;81.56;101688.60;105693;1251;69175;-60
2023/05/18 06:01:10;;;;;;;10.90;2.70;;;;;;;8.85;81.75;101689.52;105823;1251;73027;-61
2023/05/18 06:03:38;;;;;;;6.40;1.90;;;;;;;9.02;81.35;101693.52;105703;1251;82562;-59
2023/05/18 06:06:08;;;;;;;6.00;2.30;;;;;;;9.20;81.10;101691.62;105768;1251;72392;-59
2023/05/18 06:08:36;;;;;;;10.70;2.00;;;;;;;9.33;79.81;101694.45;105673;1255;69163;-59
2023/05/18 06:11:04;;;;;;;4.90;2.00;;;;;;;9.36;79.24;101694.75;105786;1257;69502;-61
2023/05/18 06:13:33;;;;;;;7.70;1.70;;;;;;;9.39;79.06;101695.42;105647;1251;73053;-60
2023/05/18 06:16:02;;;;;;;6.60;1.80;;;;;;;9.48;78.70;101701.08;105760;1256;83421;-61
2023/05/18 06:18:30;;;;;;;6.50;1.60;;;;;;;9.55;78.02;101698.19;105642;1257;72696;-61
2023/05/18 06:21:03;;;;;;;5.80;1.30;;;;;;;9.62;77.38;101700.38;105540;1253;69274;-61
2023/05/18 06:23:32;;;;;;;4.80;1.60;;;;;;;9.67;76.71;101699.98;105606;1255;69081;-62
2023/05/18 06:26:03;;;;;;;6.90;1.60;;;;;;;9.72;76.49;101703.40;105752;1257;74182;-61
2023/05/18 06:28:31;;;;;;;5.90;1.10;;;;;;;9.77;76.11;101704.38;105652;1255;83533;-59
2023/05/18 06:31:08;;;;;;;7.30;1.30;;;;;;;9.84;75.94;101704.64;105627;1257;73850;-60
2023/05/18 06:33:46;;;;;;;5.40;1.10;;;;;;;9.94;75.73;101705.39;105766;1255;70004;-60
2023/05/18 06:36:15;;;;;;;5.20;1.20;;;;;;;10.03;75.46;101708.23;105640;1257;69179;-60
2023/05/18 06:38:44;;;;;;;5.00;1.30;;;;;;;10.12;75.03;101705.14;105618;1257;74047;-60
2023/05/18 06:41:13;;;;;;;6.60;1.30;;;;;;;10.20;74.70;101705.71;105590;1256;83139;-60
2023/05/18 06:43:41;;;;;;;9.90;1.40;;;;;;;10.28;74.52;101712.96;105577;1257;72869;-60
2023/05/18 06:46:23;;;;;;;5.70;1.30;;;;;;;10.37;74.09;101711.80;105706;1252;69044;-60
2023/05/18 06:48:55;;;;;;;4.30;1.40;;;;;;;10.46;74.00;101710.78;105759;1251;69026;-60
2023/05/18 06:51:24;;;;;;;5.20;1.60;;;;;;;10.48;73.16;101714.41;105705;1254;74193;-60
2023/05/18 06:53:54;;;;;;;;;;;;;;;10.54;73.22;101712.75;105560;1254;83388;-60
2023/05/18 06:56:23;;;;;;;4.10;1.10;;;;;;;10.61;73.00;101708.61;105646;1254;73133;-60
2023/05/18 06:58:52;;;;;;;4.30;1.10;;;;;;;10.72;73.20;101711.06;105631;1253;69163;-60
2023/05/18 07:01:20;;;;;;;8.50;1.30;;;;;;;10.83;72.54;101706.14;105546;1251;69172;-61
2023/05/18 07:03:49;;;;;;;7.00;1.50;;;;;;;10.90;72.01;101711.45;105907;1256;73761;-62
2023/05/18 07:06:17;;;;;;;5.10;1.00;;;;;;;10.97;72.05;101716.05;105676;1257;83834;-60
2023/05/18 07:08:46;;;;;;;4.50;1.20;;;;;;;11.07;71.72;101716.41;105595;1251;73769;-60
2023/05/18 07:11:15;;;;;;;5.60;1.00;;;;;;;11.11;70.86;101714.91;105802;1251;69144;-60
2023/05/18 07:13:43;;;;;;;4.40;1.00;;;;;;;11.15;70.36;101712.92;105747;1251;69192;-60
2023/05/18 07:16:11;;;;;;;4.70;1.30;;;;;;;11.20;70.30;101716.69;105806;1257;74275;-60
2023/05/18 07:18:41;;;;;;;9.20;1.20;;;;;;;11.29;70.31;101714.94;105685;1251;83337;-60
2023/05/18 07:21:10;;;;;;;5.10;0.90;;;;;;;11.40;69.78;101714.73;105720;1254;74283;-61
2023/05/18 07:23:38;;;;;;;2.30;0.70;;;;;;;11.53;69.68;101718.86;105677;1254;69092;-60
2023/05/18 07:26:09;;;;;;;3.00;0.90;;;;;;;11.62;69.15;101712.71;105976;1251;69172;-60
2023/05/18 07:28:38;;;;;;;4.30;0.90;;;;;;;11.69;68.90;101714.14;105729;1257;73766;-60
2023/05/18 07:31:06;;;;;;;3.60;1.00;;;;;;;11.76;68.14;101714.00;105576;1257;83488;-60
2023/05/18 07:33:34;;;;;;;6.60;1.00;;;;;;;11.80;67.73;101713.74;105669;1251;72760;-61
2023/05/18 07:36:03;;;;;;;3.10;0.80;;;;;;;11.87;67.79;101708.36;105836;1256;69102;-60
2023/05/18 07:38:31;;;;;;;2.20;0.60;;;;;;;11.96;67.41;101710.11;105817;1251;69077;-60
2023/05/18 07:41:00;;;;;;;3.10;0.60;;;;;;;12.07;67.03;101709.52;105620;1257;74026;-60
2023/05/18 07:43:28;;;;;;;3.60;0.70;;;;;;;12.15;66.38;101711.95;105686;1256;83344;-58
2023/05/18 07:45:56;;;;;;;3.70;0.80;;;;;;;12.25;66.14;101718.21;105609;1252;73406;-60
2023/05/18 07:48:25;;;;;;;25.10;2.60;;;;;;;12.36;65.80;101717.79;105788;1251;69051;-59
2023/05/18 07:50:53;;;;;;;5.10;1.30;;;;;;;12.45;65.55;101717.39;105695;1251;69073;-60
2023/05/18 07:53:21;;;;;;;3.20;1.00;;;;;;;12.57;65.43;101715.36;105710;1257;74920;-60
2023/05/18 07:55:50;;;;;;;5.10;1.50;;;;;;;12.68;65.38;101717.70;105691;1251;83279;-60
2023/05/18 07:58:18;;;;;;;3.10;0.90;;;;;;;12.81;64.99;101719.33;105691;1255;73848;-60
2023/05/18 08:00:47;;;;;;;3.70;0.90;;;;;;;12.90;64.80;101718.40;105590;1254;69083;-60
2023/05/18 08:03:15;;;;;;;2.30;0.70;;;;;;;13.03;64.69;101717.70;105648;1257;69211;-61
2023/05/18 08:05:43;;;;;;;6.70;1.30;;;;;;;13.08;64.00;101718.45;105837;1257;73755;-61
2023/05/18 08:08:14;;;;;;;2.20;0.80;;;;;;;13.12;63.68;101713.42;105604;1251;82576;-61
2023/05/18 08:10:42;;;;;;;;;;;;;;;13.21;63.28;101712.33;105642;1257;73149;-61
2023/05/18 08:13:10;;;;;;;5.10;1.20;;;;;;;13.24;62.68;101713.13;105679;1257;69074;-61
2023/05/18 08:15:42;;;;;;;2.60;1.10;;;;;;;13.25;62.40;101714.34;105640;1256;69163;-61
2023/05/18 08:18:10;;;;;;;6.00;0.90;;;;;;;13.23;61.78;101710.52;105691;1251;73712;-61
2023/05/18 08:20:38;;;;;;;3.00;1.00;;;;;;;13.19;61.41;101709.58;105670;1251;82454;-61
2023/05/18 08:23:07;;;;;;;7.10;1.00;;;;;;;13.23;61.75;101706.30;105648;1251;73823;-62
2023/05/18 08:25:35;;;;;;;5.50;1.30;;;;;;;13.36;61.77;101705.42;105671;1251;69094;-61
2023/05/18 08:28:03;;;;;;;3.80;1.00;;;;;;;13.48;61.23;101705.29;105603;1251;69084;-61
2023/05/18 08:30:32;;;;;;;3.00;1.00;;;;;;;13.55;61.11;101704.04;105659;1251;74183;-61
2023/05/18 08:33:00;;;;;;;4.40;1.00;;;;;;;13.63;61.39;101702.73;105627;1251;82569;-61
2023/05/18 08:35:29;;;;;;;4.40;0.90;;;;;;;13.76;60.87;101699.20;105687;1251;73969;-61
2023/05/18 08:37:57;;;;;;;5.00;1.20;;;;;;;13.85;60.37;101693.48;105726;1251;69407;-61
2023/05/18 08:40:32;;;;;;;4.10;0.70;;;;;;;13.94;60.18;101695.00;105598;1251;69131;-61
2023/05/18 08:43:12;;;;;;;6.90;1.20;;;;;;;14.07;60.23;101698.25;105668;1251;74068;-61
2023/05/18 08:45:49;;;;;;;5.90;1.30;;;;;;;14.18;59.88;101695.82;105642;1256;83709;-61
2023/05/18 08:48:18;;;;;;;2.30;1.00;;;;;;;14.20;59.44;101696.45;105623;1251;73852;-61
2023/05/18 08:50:48;;;;;;;4.10;0.90;;;;;;;14.22;59.28;101694.80;105689;1251;69065;-61
2023/05/18 08:53:17;;;;;;;5.40;1.00;;;;;;;14.26;59.23;101695.71;105692;1256;69205;-61
2023/05/18 08:55:47;;;;;;;4.60;1.30;;;;;;;14.26;59.08;101696.61;105606;1256;73173;-61
2023/05/18 08:58:18;;;;;;;8.30;1.60;;;;;;;14.27;58.89;101694.30;105637;1251;83523;-61
2023/05/18 09:00:52;;;;;;;5.10;1.10;;;;;;;14.27;58.45;101692.89;105649;1251;73774;-61
2023/05/18 09:03:21;;;;;;;4.10;0.90;;;;;;;14.29;58.30;101691.43;105675;1255;69106;-61
2023/05/18 09:05:51;;;;;;;5.60;1.10;;;;;;;14.34;58.27;101689.69;105582;1257;69163;-61
2023/05/18 09:08:19;;;;;;;5.90;0.90;;;;;;;14.41;58.02;101690.33;105698;1256;72764;-60
2023/05/18 09:10:49;;;;;;;4.10;1.00;;;;;;;14.48;58.00;101688.00;105707;1251;83550;-61
2023/05/18 09:13:20;;;;;;;3.50;1.10;;;;;;;14.57;58.12;101682.99;105646;1257;73649;-60
2023/05/18 09:15:50;;;;;;;2.80;0.80;;;;;;;14.69;57.82;101686.98;105597;1257;69201;-60
2023/05/18 09:18:18;;;;;;;4.80;1.20;;;;;;;14.76;57.36;101684.09;105674;1251;69185;-60
2023/05/18 09:20:50;;;;;;;5.50;1.00;;;;;;;14.75;56.85;101683.46;105657;1255;74302;-60
2023/05/18 09:23:19;;;;;;;2.80;1.10;;;;;;;14.77;57.04;101688.11;105644;1253;83311;-60
2023/05/18 09:25:51;;;;;;;2.70;0.90;;;;;;;14.85;57.04;101685.73;105691;1251;73735;-58
2023/05/18 09:28:31;;;;;;;5.60;1.00;;;;;;;14.99;56.70;101690.37;105567;1256;69234;-58
2023/05/18 09:31:00;;;;;;;2.50;1.10;;;;;;;15.13;56.55;101685.79;105631;1257;69272;-58
2023/05/18 09:33:35;;;;;;;2.50;1.00;;;;;;;15.27;56.57;101686.17;105655;1251;74531;-60
2023/05/18 09:36:05;;;;;;;7.00;1.20;;;;;;;15.48;56.26;101688.05;105656;1251;81483;-61
2023/05/18 09:38:46;;;;;;;3.70;1.00;;;;;;;15.60;55.47;101688.16;105685;1251;72836;-60
2023/05/18 09:41:16;;;;;;;4.00;1.10;;;;;;;15.66;54.58;101682.48;105645;1256;69484;-61
2023/05/18 09:43:47;;;;;;;4.10;1.20;;;;;;;15.71;54.40;101681.59;105693;1251;69161;-60
2023/05/18 09:46:16;;;;;;;5.90;1.20;;;;;;;15.90;54.56;101678.25;105680;1256;73879;-61
2023/05/18 09:48:46;;;;;;;3.10;0.80;;;;;;;16.07;54.55;101681.82;105660;1251;82916;-61
2023/05/18 09:51:16;;;;;;;4.10;1.50;;;;;;;16.27;54.52;101687.01;105595;1254;73877;-60
2023/05/18 09:53:48;;;;;;;;;;;;;;;16.44;53.97;101687.70;105636;1251;69199;-58
2023/05/18 09:56:17;;;;;;;5.00;1.00;;;;;;;16.45;52.56;101683.27;105636;1255;69176;-58
2023/05/18 09:58:45;;;;;;;3.80;1.10;;;;;;;16.48;52.80;101679.08;105710;1255;73496;-59
2023/05/18 10:01:14;;;;;;;7.30;1.60;;;;;;;16.62;53.01;101679.36;105688;1256;82613;-58
2023/05/18 10:03:44;;;;;;;4.30;0.90;;;;;;;16.80;53.02;101680.04;105684;1251;74378;-58
2023/05/18 10:06:12;;;;;;;4.80;1.50;;;;;;;16.94;52.69;101679.97;105642;1253;69528;-59
2023/05/18 10:08:41;;;;;;;3.50;1.10;;;;;;;17.03;52.51;101680.35;105688;1251;69067;-59
2023/05/18 10:11:09;;;;;;;7.10;1.20;;;;;;;17.12;52.06;101676.90;105648;1256;74238;-59
2023/05/18 10:13:41;;;;;;;4.60;1.00;;;;;;;17.20;51.19;101674.10;105651;1257;83665;-59
2023/05/18 10:16:09;;;;;;;5.20;1.00;;;;;;;17.24;51.10;101671.30;105687;1254;74115;-58
2023/05/18 10:18:38;;;;;;;2.70;0.90;;;;;;;17.26;51.05;101670.66;105730;1251;69092;-59
2023/05/18 10:21:07;;;;;;;3.00;1.00;;;;;;;17.28;50.84;101669.88;105684;1251;69725;-60
2023/05/18 10:23:36;;;;;;;5.00;1.20;;;;;;;17.27;50.41;101674.83;105692;1256;74251;-59
2023/05/18 10:26:06;;;;;;;4.40;1.30;;;;;;;17.31;50.29;101677.66;105596;1254;81840;-60
2023/05/18 10:28:42;;;;;;;4.60;1.20;;;;;;;17.28;50.08;101673.92;105641;1251;73792;-60
2023/05/18 10:31:11;;;;;;;4.40;1.00;;;;;;;17.30;49.76;101668.34;105641;1256;69173;-60
2023/05/18 10:33:40;;;;;;;3.30;1.20;;;;;;;17.32;49.96;101668.27;105637;1256;69029;-60
2023/05/18 10:36:09;;;;;;;4.30;1.30;;;;;;;17.26;49.70;101664.84;105542;1254;74209;-60
2023/05/18 10:38:39;;;;;;;3.60;1.00;;;;;;;17.34;49.77;101673.66;105625;1257;83724;-60
2023/05/18 10:41:08;;;;;;;3.30;1.30;;;;;;;17.50;50.12;101675.23;105523;1256;73715;-60
2023/05/18 10:43:37;;;;;;;2.50;1.00;;;;;;;17.76;49.82;101672.41;105466;1254;69145;-60
2023/05/18 10:46:06;;;;;;;2.70;1.00;;;;;;;17.91;49.35;101671.38;105582;1254;69128;-60
2023/05/18 10:48:37;;;;;;;;;;;;;;;18.10;48.89;101669.10;105610;1254;71989;-60
2023/05/18 10:51:06;;;;;;;;;;;;;;;18.19;48.40;101667.21;105612;1254;84369;-61
2023/05/18 10:53:35;;;;;;;3.60;1.00;;;;;;;18.34;48.17;101662.41;105618;1256;72739;-60
2023/05/18 10:56:04;;;;;;;5.80;1.30;;;;;;;18.49;47.83;101664.48;105588;1254;69173;-61
2023/05/18 10:58:34;;;;;;;7.10;1.70;;;;;;;18.69;47.38;101662.41;105661;1254;69106;-59
2023/05/18 11:01:05;;;;;;;5.20;1.50;;;;;;;18.88;47.45;101664.66;105586;1254;74865;-59
2023/05/18 11:03:33;;;;;;;6.00;1.50;;;;;;;19.05;47.54;101663.24;105622;1256;82246;-57
2023/05/18 11:06:09;;;;;;;9.90;3.50;;;;;;;19.28;47.40;101665.02;105620;1254;73719;-58
2023/05/18 11:08:50;;;;;;;2.90;1.30;;;;;;;19.45;46.67;101658.98;105568;1254;69173;-60
2023/05/18 11:11:23;;;;;;;4.50;1.00;;;;;;;19.50;46.37;101656.93;105611;1254;69173;-60
2023/05/18 11:13:51;;;;;;;2.60;1.00;;;;;;;19.52;45.60;101655.08;105548;1254;73952;-60
2023/05/18 11:16:19;;;;;;;5.20;1.20;;;;;;;19.46;45.36;101652.38;105622;1252;83279;-60
2023/05/18 11:18:50;;;;;;;2.60;0.80;;;;;;;19.47;45.34;101653.77;105584;1256;73928;-60
2023/05/18 11:21:34;;;;;;;2.20;0.90;;;;;;;19.45;45.46;101652.25;105564;1254;69093;-60
2023/05/18 11:24:14;;;;;;;2.90;1.20;;;;;;;19.38;45.18;101653.16;105601;1254;69118;-60
2023/05/18 11:26:53;;;;;;;3.70;1.10;;;;;;;19.41;44.96;101653.39;105573;1254;74180;-59
2023/05/18 11:29:39;;;;;;;5.90;1.30;;;;;;;19.34;45.05;101653.36;105580;1254;82891;-59
2023/05/18 11:32:27;;;;;;;3.10;1.00;;;;;;;19.27;44.78;101647.73;105570;1253;72760;-60
2023/05/18 11:34:58;;;;;;;4.70;1.20;;;;;;;19.25;44.79;101644.13;105513;1256;69735;-60